sensor_id;sensor_type;location;lat;lon;timestamp;P1;durP1;ratioP1;P2;durP2;ratioP2
7316;SDS011;3699;51.462;6.696;2023-08-06T00:00:31;5.57;;;4.90;;
7316;SDS011;3699;51.462;6.696;2023-08-06T00:02:58;5.20;;;4.40;;
7316;SDS011;3699;51.462;6.696;2023-08-06T00:05:24;5.47;;;4.60;;
7316;SDS011;3699;51.462;6.696;2023-08-06T00:07:51;14.17;;;4.80;;
7316;SDS011;3699;51.462;6.696;2023-08-06T00:10:18;5.57;;;4.77;;
7316;SDS011;3699;51.462;6.696;2023-08-06T00:12:45;5.53;;;4.67;;
7316;SDS011;3699;51.462;6.696;2023-08-06T00:15:13;5.30;;;4.80;;
7316;SDS011;3699;51.462;6.696;2023-08-06T00:17:39;5.13;;;4.60;;
7316;SDS011;3699;51.462;6.696;2023-08-06T00:20:07;6.13;;;4.80;;
7316;SDS011;3699;51.462;6.696;2023-08-06T00:22:35;5.30;;;4.67;;
7316;SDS011;3699;51.462;6.696;2023-08-06T00:25:03;6.40;;;4.90;;
7316;SDS011;3699;51.462;6.696;2023-08-06T00:27:30;8.77;;;4.63;;
7316;SDS011;3699;51.462;6.696;2023-08-06T00:29:57;11.17;;;4.60;;
7316;SDS011;3699;51.462;6.696;2023-08-06T00:32:26;9.40;;;4.53;;
7316;SDS011;3699;51.462;6.696;2023-08-06T00:34:52;9.37;;;5.13;;
7316;SDS011;3699;51.462;6.696;2023-08-06T00:37:19;8.63;;;5.97;;
7316;SDS011;3699;51.462;6.696;2023-08-06T00:39:46;8.03;;;5.30;;
7316;SDS011;3699;51.462;6.696;2023-08-06T00:42:13;6.37;;;4.47;;
7316;SDS011;3699;51.462;6.696;2023-08-06T00:44:41;8.77;;;4.73;;
7316;SDS011;3699;51.462;6.696;2023-08-06T00:47:07;5.20;;;4.67;;
7316;SDS011;3699;51.462;6.696;2023-08-06T00:49:36;7.10;;;5.33;;
7316;SDS011;3699;51.462;6.696;2023-08-06T00:52:03;5.47;;;4.50;;
7316;SDS011;3699;51.462;6.696;2023-08-06T00:54:31;5.50;;;4.27;;
7316;SDS011;3699;51.462;6.696;2023-08-06T00:56:59;5.13;;;4.63;;
7316;SDS011;3699;51.462;6.696;2023-08-06T00:59:27;6.00;;;4.63;;
7316;SDS011;3699;51.462;6.696;2023-08-06T01:01:55;7.30;;;4.83;;
7316;SDS011;3699;51.462;6.696;2023-08-06T01:04:22;6.57;;;4.60;;
7316;SDS011;3699;51.462;6.696;2023-08-06T01:06:52;5.80;;;4.93;;
7316;SDS011;3699;51.462;6.696;2023-08-06T01:09:30;5.00;;;4.37;;
7316;SDS011;3699;51.462;6.696;2023-08-06T01:12:05;7.43;;;4.27;;
7316;SDS011;3699;51.462;6.696;2023-08-06T01:14:45;6.33;;;4.93;;
7316;SDS011;3699;51.462;6.696;2023-08-06T01:17:18;4.80;;;4.37;;
7316;SDS011;3699;51.462;6.696;2023-08-06T01:19:46;4.53;;;4.13;;
7316;SDS011;3699;51.462;6.696;2023-08-06T01:22:14;8.33;;;5.37;;
7316;SDS011;3699;51.462;6.696;2023-08-06T01:24:41;6.73;;;4.43;;
7316;SDS011;3699;51.462;6.696;2023-08-06T01:27:14;5.07;;;4.53;;
7316;SDS011;3699;51.462;6.696;2023-08-06T01:29:49;4.33;;;3.93;;
7316;SDS011;3699;51.462;6.696;2023-08-06T01:32:21;5.87;;;4.07;;
7316;SDS011;3699;51.462;6.696;2023-08-06T01:34:50;6.67;;;4.37;;
7316;SDS011;3699;51.462;6.696;2023-08-06T01:37:19;5.40;;;4.70;;
7316;SDS011;3699;51.462;6.696;2023-08-06T01:39:46;4.67;;;4.17;;
7316;SDS011;3699;51.462;6.696;2023-08-06T01:42:13;5.47;;;4.13;;
7316;SDS011;3699;51.462;6.696;2023-08-06T01:44:39;5.53;;;4.50;;
7316;SDS011;3699;51.462;6.696;2023-08-06T01:47:06;3.93;;;3.53;;
7316;SDS011;3699;51.462;6.696;2023-08-06T01:49:33;6.00;;;3.83;;
7316;SDS011;3699;51.462;6.696;2023-08-06T01:52:00;7.10;;;4.23;;
7316;SDS011;3699;51.462;6.696;2023-08-06T01:54:28;9.27;;;4.43;;
7316;SDS011;3699;51.462;6.696;2023-08-06T01:56:55;4.73;;;3.67;;
7316;SDS011;3699;51.462;6.696;2023-08-06T01:59:23;7.10;;;3.83;;
7316;SDS011;3699;51.462;6.696;2023-08-06T02:01:50;4.83;;;4.00;;
7316;SDS011;3699;51.462;6.696;2023-08-06T02:04:16;9.07;;;4.03;;
7316;SDS011;3699;51.462;6.696;2023-08-06T02:06:43;9.10;;;4.03;;
7316;SDS011;3699;51.462;6.696;2023-08-06T02:09:10;6.70;;;3.83;;
7316;SDS011;3699;51.462;6.696;2023-08-06T02:11:38;4.37;;;3.93;;
7316;SDS011;3699;51.462;6.696;2023-08-06T02:14:05;5.00;;;4.00;;
7316;SDS011;3699;51.462;6.696;2023-08-06T02:16:31;7.10;;;4.30;;
7316;SDS011;3699;51.462;6.696;2023-08-06T02:18:58;7.53;;;4.20;;
7316;SDS011;3699;51.462;6.696;2023-08-06T02:21:25;4.77;;;4.20;;
7316;SDS011;3699;51.462;6.696;2023-08-06T02:23:52;6.13;;;4.13;;
7316;SDS011;3699;51.462;6.696;2023-08-06T02:26:18;5.43;;;4.20;;
7316;SDS011;3699;51.462;6.696;2023-08-06T02:28:46;9.13;;;4.57;;
7316;SDS011;3699;51.462;6.696;2023-08-06T02:31:13;4.83;;;4.10;;
7316;SDS011;3699;51.462;6.696;2023-08-06T02:33:40;7.47;;;4.30;;
7316;SDS011;3699;51.462;6.696;2023-08-06T02:36:07;5.50;;;4.40;;
7316;SDS011;3699;51.462;6.696;2023-08-06T02:38:33;7.27;;;4.40;;
7316;SDS011;3699;51.462;6.696;2023-08-06T02:41:01;7.23;;;4.10;;
7316;SDS011;3699;51.462;6.696;2023-08-06T02:43:29;8.70;;;4.23;;
7316;SDS011;3699;51.462;6.696;2023-08-06T02:45:57;5.27;;;4.77;;
7316;SDS011;3699;51.462;6.696;2023-08-06T02:48:25;7.03;;;4.40;;
7316;SDS011;3699;51.462;6.696;2023-08-06T02:50:51;4.90;;;4.40;;
7316;SDS011;3699;51.462;6.696;2023-08-06T02:53:18;7.03;;;4.70;;
7316;SDS011;3699;51.462;6.696;2023-08-06T02:55:45;5.27;;;4.77;;
7316;SDS011;3699;51.462;6.696;2023-08-06T02:58:13;8.70;;;6.17;;
7316;SDS011;3699;51.462;6.696;2023-08-06T03:00:40;10.17;;;6.20;;
7316;SDS011;3699;51.462;6.696;2023-08-06T03:03:08;9.20;;;6.07;;
7316;SDS011;3699;51.462;6.696;2023-08-06T03:05:35;11.00;;;7.10;;
7316;SDS011;3699;51.462;6.696;2023-08-06T03:08:02;12.60;;;7.90;;
7316;SDS011;3699;51.462;6.696;2023-08-06T03:10:28;10.20;;;7.37;;
7316;SDS011;3699;51.462;6.696;2023-08-06T03:12:55;7.60;;;6.07;;
7316;SDS011;3699;51.462;6.696;2023-08-06T03:15:22;6.93;;;5.97;;
7316;SDS011;3699;51.462;6.696;2023-08-06T03:17:49;6.20;;;5.00;;
7316;SDS011;3699;51.462;6.696;2023-08-06T03:20:17;6.23;;;4.70;;
7316;SDS011;3699;51.462;6.696;2023-08-06T03:22:43;6.33;;;4.50;;
7316;SDS011;3699;51.462;6.696;2023-08-06T03:25:10;6.53;;;5.10;;
7316;SDS011;3699;51.462;6.696;2023-08-06T03:27:37;6.97;;;5.50;;
7316;SDS011;3699;51.462;6.696;2023-08-06T03:30:04;7.77;;;5.07;;
7316;SDS011;3699;51.462;6.696;2023-08-06T03:32:31;6.73;;;6.03;;
7316;SDS011;3699;51.462;6.696;2023-08-06T03:34:58;7.97;;;6.17;;
7316;SDS011;3699;51.462;6.696;2023-08-06T03:37:26;8.07;;;7.20;;
7316;SDS011;3699;51.462;6.696;2023-08-06T03:39:53;11.67;;;8.40;;
7316;SDS011;3699;51.462;6.696;2023-08-06T03:42:20;8.30;;;7.00;;
7316;SDS011;3699;51.462;6.696;2023-08-06T03:44:47;10.17;;;6.77;;
7316;SDS011;3699;51.462;6.696;2023-08-06T03:47:13;6.70;;;6.10;;
7316;SDS011;3699;51.462;6.696;2023-08-06T03:49:40;6.80;;;5.80;;
7316;SDS011;3699;51.462;6.696;2023-08-06T03:52:08;9.30;;;6.20;;
7316;SDS011;3699;51.462;6.696;2023-08-06T03:54:36;6.47;;;5.87;;
7316;SDS011;3699;51.462;6.696;2023-08-06T03:57:04;7.10;;;5.80;;
7316;SDS011;3699;51.462;6.696;2023-08-06T03:59:31;9.13;;;5.70;;
7316;SDS011;3699;51.462;6.696;2023-08-06T04:01:58;8.77;;;5.50;;
7316;SDS011;3699;51.462;6.696;2023-08-06T04:04:24;6.60;;;5.63;;
7316;SDS011;3699;51.462;6.696;2023-08-06T04:06:51;8.47;;;5.57;;
7316;SDS011;3699;51.462;6.696;2023-08-06T04:09:18;6.23;;;5.40;;
7316;SDS011;3699;51.462;6.696;2023-08-06T04:11:46;6.63;;;5.07;;
7316;SDS011;3699;51.462;6.696;2023-08-06T04:14:13;6.00;;;4.97;;
7316;SDS011;3699;51.462;6.696;2023-08-06T04:16:40;9.20;;;4.50;;
7316;SDS011;3699;51.462;6.696;2023-08-06T04:19:06;9.57;;;4.40;;
7316;SDS011;3699;51.462;6.696;2023-08-06T04:21:33;4.80;;;4.33;;
7316;SDS011;3699;51.462;6.696;2023-08-06T04:24:00;7.93;;;4.30;;
7316;SDS011;3699;51.462;6.696;2023-08-06T04:26:26;7.87;;;5.13;;
7316;SDS011;3699;51.462;6.696;2023-08-06T04:28:55;5.13;;;4.63;;
7316;SDS011;3699;51.462;6.696;2023-08-06T04:31:21;7.83;;;5.00;;
7316;SDS011;3699;51.462;6.696;2023-08-06T04:33:49;11.13;;;5.23;;
7316;SDS011;3699;51.462;6.696;2023-08-06T04:36:15;9.60;;;5.30;;
7316;SDS011;3699;51.462;6.696;2023-08-06T04:38:42;6.63;;;5.10;;
7316;SDS011;3699;51.462;6.696;2023-08-06T04:41:12;9.40;;;5.70;;
7316;SDS011;3699;51.462;6.696;2023-08-06T04:43:39;9.73;;;5.50;;
7316;SDS011;3699;51.462;6.696;2023-08-06T04:46:07;6.33;;;5.00;;
7316;SDS011;3699;51.462;6.696;2023-08-06T04:48:33;6.97;;;4.63;;
7316;SDS011;3699;51.462;6.696;2023-08-06T04:51:00;6.67;;;4.90;;
7316;SDS011;3699;51.462;6.696;2023-08-06T04:53:27;7.73;;;5.10;;
7316;SDS011;3699;51.462;6.696;2023-08-06T04:55:54;6.73;;;4.30;;
7316;SDS011;3699;51.462;6.696;2023-08-06T04:58:20;7.97;;;5.17;;
7316;SDS011;3699;51.462;6.696;2023-08-06T05:00:47;12.07;;;4.57;;
7316;SDS011;3699;51.462;6.696;2023-08-06T05:03:15;9.37;;;4.50;;
7316;SDS011;3699;51.462;6.696;2023-08-06T05:05:42;6.97;;;4.70;;
7316;SDS011;3699;51.462;6.696;2023-08-06T05:08:13;6.60;;;4.43;;
7316;SDS011;3699;51.462;6.696;2023-08-06T05:10:42;10.07;;;4.53;;
7316;SDS011;3699;51.462;6.696;2023-08-06T05:13:09;6.47;;;4.03;;
7316;SDS011;3699;51.462;6.696;2023-08-06T05:15:35;11.47;;;3.93;;
7316;SDS011;3699;51.462;6.696;2023-08-06T05:18:02;4.47;;;3.70;;
7316;SDS011;3699;51.462;6.696;2023-08-06T05:20:30;5.27;;;4.03;;
7316;SDS011;3699;51.462;6.696;2023-08-06T05:22:57;9.80;;;4.80;;
7316;SDS011;3699;51.462;6.696;2023-08-06T05:25:24;9.40;;;4.37;;
7316;SDS011;3699;51.462;6.696;2023-08-06T05:27:50;6.03;;;4.53;;
7316;SDS011;3699;51.462;6.696;2023-08-06T05:30:18;5.57;;;4.17;;
7316;SDS011;3699;51.462;6.696;2023-08-06T05:32:45;7.37;;;5.07;;
7316;SDS011;3699;51.462;6.696;2023-08-06T05:35:11;8.00;;;3.70;;
7316;SDS011;3699;51.462;6.696;2023-08-06T05:37:40;5.73;;;3.90;;
7316;SDS011;3699;51.462;6.696;2023-08-06T05:40:07;11.07;;;6.53;;
7316;SDS011;3699;51.462;6.696;2023-08-06T05:42:34;10.13;;;6.57;;
7316;SDS011;3699;51.462;6.696;2023-08-06T05:45:01;13.60;;;7.50;;
7316;SDS011;3699;51.462;6.696;2023-08-06T05:47:27;14.93;;;8.57;;
7316;SDS011;3699;51.462;6.696;2023-08-06T05:49:54;18.03;;;8.43;;
7316;SDS011;3699;51.462;6.696;2023-08-06T05:52:21;18.07;;;8.70;;
7316;SDS011;3699;51.462;6.696;2023-08-06T05:54:49;16.57;;;8.10;;
7316;SDS011;3699;51.462;6.696;2023-08-06T05:57:16;14.73;;;8.40;;
7316;SDS011;3699;51.462;6.696;2023-08-06T05:59:43;14.50;;;6.63;;
7316;SDS011;3699;51.462;6.696;2023-08-06T06:02:09;10.87;;;5.60;;
7316;SDS011;3699;51.462;6.696;2023-08-06T06:04:36;8.47;;;4.50;;
7316;SDS011;3699;51.462;6.696;2023-08-06T06:07:03;4.77;;;3.40;;
7316;SDS011;3699;51.462;6.696;2023-08-06T06:09:30;5.57;;;3.50;;
7316;SDS011;3699;51.462;6.696;2023-08-06T06:11:58;4.57;;;3.63;;
7316;SDS011;3699;51.462;6.696;2023-08-06T06:14:25;4.47;;;3.17;;
7316;SDS011;3699;51.462;6.696;2023-08-06T06:16:52;4.27;;;2.87;;
7316;SDS011;3699;51.462;6.696;2023-08-06T06:19:19;3.10;;;2.80;;
7316;SDS011;3699;51.462;6.696;2023-08-06T06:21:45;3.07;;;2.80;;
7316;SDS011;3699;51.462;6.696;2023-08-06T06:24:12;2.87;;;2.60;;
7316;SDS011;3699;51.462;6.696;2023-08-06T06:26:39;3.37;;;3.00;;
7316;SDS011;3699;51.462;6.696;2023-08-06T06:29:07;3.20;;;2.90;;
7316;SDS011;3699;51.462;6.696;2023-08-06T06:31:34;4.50;;;3.17;;
7316;SDS011;3699;51.462;6.696;2023-08-06T06:34:00;5.47;;;3.30;;
7316;SDS011;3699;51.462;6.696;2023-08-06T06:36:27;3.40;;;3.10;;
7316;SDS011;3699;51.462;6.696;2023-08-06T06:38:54;3.40;;;3.10;;
7316;SDS011;3699;51.462;6.696;2023-08-06T06:41:21;5.70;;;3.10;;
7316;SDS011;3699;51.462;6.696;2023-08-06T06:43:47;6.20;;;3.30;;
7316;SDS011;3699;51.462;6.696;2023-08-06T06:46:15;6.37;;;3.30;;
7316;SDS011;3699;51.462;6.696;2023-08-06T06:48:42;5.70;;;3.50;;
7316;SDS011;3699;51.462;6.696;2023-08-06T06:51:09;4.50;;;3.73;;
7316;SDS011;3699;51.462;6.696;2023-08-06T06:53:36;10.83;;;3.97;;
7316;SDS011;3699;51.462;6.696;2023-08-06T06:56:03;9.37;;;4.20;;
7316;SDS011;3699;51.462;6.696;2023-08-06T06:58:31;5.07;;;4.17;;
7316;SDS011;3699;51.462;6.696;2023-08-06T07:00:58;5.10;;;4.13;;
7316;SDS011;3699;51.462;6.696;2023-08-06T07:03:26;9.17;;;4.50;;
7316;SDS011;3699;51.462;6.696;2023-08-06T07:05:56;4.67;;;3.83;;
7316;SDS011;3699;51.462;6.696;2023-08-06T07:08:23;5.47;;;4.37;;
7316;SDS011;3699;51.462;6.696;2023-08-06T07:10:50;4.67;;;3.83;;
7316;SDS011;3699;51.462;6.696;2023-08-06T07:13:17;10.47;;;5.23;;
7316;SDS011;3699;51.462;6.696;2023-08-06T07:15:43;5.43;;;3.80;;
7316;SDS011;3699;51.462;6.696;2023-08-06T07:18:10;5.30;;;3.63;;
7316;SDS011;3699;51.462;6.696;2023-08-06T07:20:38;5.20;;;4.60;;
7316;SDS011;3699;51.462;6.696;2023-08-06T07:23:05;8.43;;;5.53;;
7316;SDS011;3699;51.462;6.696;2023-08-06T07:25:32;7.77;;;5.00;;
7316;SDS011;3699;51.462;6.696;2023-08-06T07:27:58;7.63;;;4.00;;
7316;SDS011;3699;51.462;6.696;2023-08-06T07:30:27;6.17;;;4.40;;
7316;SDS011;3699;51.462;6.696;2023-08-06T07:32:54;5.40;;;4.90;;
7316;SDS011;3699;51.462;6.696;2023-08-06T07:35:20;7.83;;;5.00;;
7316;SDS011;3699;51.462;6.696;2023-08-06T07:37:49;5.60;;;4.63;;
7316;SDS011;3699;51.462;6.696;2023-08-06T07:40:15;6.17;;;4.43;;
7316;SDS011;3699;51.462;6.696;2023-08-06T07:42:42;7.03;;;4.37;;
7316;SDS011;3699;51.462;6.696;2023-08-06T07:45:09;6.83;;;4.20;;
7316;SDS011;3699;51.462;6.696;2023-08-06T07:47:36;6.20;;;3.97;;
7316;SDS011;3699;51.462;6.696;2023-08-06T07:50:03;5.70;;;4.27;;
7316;SDS011;3699;51.462;6.696;2023-08-06T07:52:30;4.43;;;3.90;;
7316;SDS011;3699;51.462;6.696;2023-08-06T07:54:58;5.40;;;4.63;;
7316;SDS011;3699;51.462;6.696;2023-08-06T07:57:26;4.47;;;4.03;;
7316;SDS011;3699;51.462;6.696;2023-08-06T07:59:53;6.50;;;4.73;;
7316;SDS011;3699;51.462;6.696;2023-08-06T08:02:20;4.90;;;4.07;;
7316;SDS011;3699;51.462;6.696;2023-08-06T08:04:46;6.57;;;3.87;;
7316;SDS011;3699;51.462;6.696;2023-08-06T08:07:13;5.60;;;3.90;;
7316;SDS011;3699;51.462;6.696;2023-08-06T08:09:40;7.00;;;4.03;;
7316;SDS011;3699;51.462;6.696;2023-08-06T08:12:08;4.10;;;3.70;;
7316;SDS011;3699;51.462;6.696;2023-08-06T08:14:35;6.00;;;4.27;;
7316;SDS011;3699;51.462;6.696;2023-08-06T08:17:02;6.00;;;4.43;;
7316;SDS011;3699;51.462;6.696;2023-08-06T08:19:29;4.90;;;4.20;;
7316;SDS011;3699;51.462;6.696;2023-08-06T08:21:56;5.30;;;4.30;;
7316;SDS011;3699;51.462;6.696;2023-08-06T08:24:23;4.27;;;3.90;;
7316;SDS011;3699;51.462;6.696;2023-08-06T08:26:50;6.00;;;3.70;;
7316;SDS011;3699;51.462;6.696;2023-08-06T08:29:19;4.00;;;2.67;;
7316;SDS011;3699;51.462;6.696;2023-08-06T08:31:46;4.33;;;2.87;;
7316;SDS011;3699;51.462;6.696;2023-08-06T08:34:14;2.20;;;2.00;;
7316;SDS011;3699;51.462;6.696;2023-08-06T08:36:41;3.40;;;2.30;;
7316;SDS011;3699;51.462;6.696;2023-08-06T08:39:07;3.97;;;3.00;;
7316;SDS011;3699;51.462;6.696;2023-08-06T08:41:35;3.00;;;2.70;;
7316;SDS011;3699;51.462;6.696;2023-08-06T08:44:05;3.00;;;2.30;;
7316;SDS011;3699;51.462;6.696;2023-08-06T08:46:36;6.00;;;2.50;;
7316;SDS011;3699;51.462;6.696;2023-08-06T08:49:04;3.63;;;2.00;;
7316;SDS011;3699;51.462;6.696;2023-08-06T08:51:32;4.57;;;2.10;;
7316;SDS011;3699;51.462;6.696;2023-08-06T08:53:59;4.10;;;2.07;;
7316;SDS011;3699;51.462;6.696;2023-08-06T08:56:28;6.67;;;2.53;;
7316;SDS011;3699;51.462;6.696;2023-08-06T08:58:56;5.60;;;1.97;;
7316;SDS011;3699;51.462;6.696;2023-08-06T09:01:23;2.57;;;2.07;;
7316;SDS011;3699;51.462;6.696;2023-08-06T09:03:51;5.37;;;2.00;;
7316;SDS011;3699;51.462;6.696;2023-08-06T09:06:20;3.47;;;2.00;;
7316;SDS011;3699;51.462;6.696;2023-08-06T09:08:50;10.93;;;2.63;;
7316;SDS011;3699;51.462;6.696;2023-08-06T09:11:22;5.70;;;2.60;;
7316;SDS011;3699;51.462;6.696;2023-08-06T09:13:50;3.97;;;2.33;;
7316;SDS011;3699;51.462;6.696;2023-08-06T09:16:16;4.90;;;2.70;;
7316;SDS011;3699;51.462;6.696;2023-08-06T09:18:43;7.53;;;2.77;;
7316;SDS011;3699;51.462;6.696;2023-08-06T09:21:14;5.23;;;2.83;;
7316;SDS011;3699;51.462;6.696;2023-08-06T09:23:42;4.60;;;2.70;;
7316;SDS011;3699;51.462;6.696;2023-08-06T09:26:11;4.03;;;2.87;;
7316;SDS011;3699;51.462;6.696;2023-08-06T09:28:38;7.23;;;3.00;;
7316;SDS011;3699;51.462;6.696;2023-08-06T09:31:08;3.93;;;3.17;;
7316;SDS011;3699;51.462;6.696;2023-08-06T09:33:35;5.93;;;3.00;;
7316;SDS011;3699;51.462;6.696;2023-08-06T09:36:09;3.20;;;2.90;;
7316;SDS011;3699;51.462;6.696;2023-08-06T09:38:41;3.43;;;3.10;;
7316;SDS011;3699;51.462;6.696;2023-08-06T09:41:08;4.73;;;3.13;;
7316;SDS011;3699;51.462;6.696;2023-08-06T09:43:41;5.63;;;4.03;;
7316;SDS011;3699;51.462;6.696;2023-08-06T09:46:12;5.57;;;4.90;;
7316;SDS011;3699;51.462;6.696;2023-08-06T09:48:40;6.57;;;4.60;;
7316;SDS011;3699;51.462;6.696;2023-08-06T09:51:10;12.70;;;5.70;;
7316;SDS011;3699;51.462;6.696;2023-08-06T09:53:39;7.77;;;5.90;;
7316;SDS011;3699;51.462;6.696;2023-08-06T09:56:08;6.53;;;5.93;;
7316;SDS011;3699;51.462;6.696;2023-08-06T09:58:36;10.07;;;7.03;;
7316;SDS011;3699;51.462;6.696;2023-08-06T10:01:05;8.00;;;7.20;;
7316;SDS011;3699;51.462;6.696;2023-08-06T10:03:33;7.97;;;6.87;;
7316;SDS011;3699;51.462;6.696;2023-08-06T10:06:00;8.00;;;7.20;;
7316;SDS011;3699;51.462;6.696;2023-08-06T10:08:31;11.90;;;7.10;;
7316;SDS011;3699;51.462;6.696;2023-08-06T10:10:59;7.83;;;6.87;;
7316;SDS011;3699;51.462;6.696;2023-08-06T10:13:29;7.33;;;6.63;;
7316;SDS011;3699;51.462;6.696;2023-08-06T10:15:56;10.87;;;7.17;;
7316;SDS011;3699;51.462;6.696;2023-08-06T10:18:23;7.60;;;6.90;;
7316;SDS011;3699;51.462;6.696;2023-08-06T10:20:51;8.70;;;7.60;;
7316;SDS011;3699;51.462;6.696;2023-08-06T10:23:18;7.83;;;7.13;;
7316;SDS011;3699;51.462;6.696;2023-08-06T10:25:46;8.33;;;7.60;;
7316;SDS011;3699;51.462;6.696;2023-08-06T10:28:22;9.23;;;7.43;;
7316;SDS011;3699;51.462;6.696;2023-08-06T10:30:59;7.70;;;7.00;;
7316;SDS011;3699;51.462;6.696;2023-08-06T10:33:26;8.80;;;7.90;;
7316;SDS011;3699;51.462;6.696;2023-08-06T10:36:08;9.63;;;8.30;;
7316;SDS011;3699;51.462;6.696;2023-08-06T10:38:35;8.67;;;7.97;;
7316;SDS011;3699;51.462;6.696;2023-08-06T10:41:14;5.83;;;5.30;;
7316;SDS011;3699;51.462;6.696;2023-08-06T10:43:43;7.70;;;5.90;;
7316;SDS011;3699;51.462;6.696;2023-08-06T10:46:21;2.67;;;2.47;;
7316;SDS011;3699;51.462;6.696;2023-08-06T10:48:48;2.37;;;2.17;;
7316;SDS011;3699;51.462;6.696;2023-08-06T10:51:15;3.37;;;1.57;;
7316;SDS011;3699;51.462;6.696;2023-08-06T10:53:43;3.30;;;1.80;;
7316;SDS011;3699;51.462;6.696;2023-08-06T10:56:13;1.87;;;1.77;;
7316;SDS011;3699;51.462;6.696;2023-08-06T10:58:41;1.50;;;1.40;;
7316;SDS011;3699;51.462;6.696;2023-08-06T11:01:09;1.33;;;1.30;;
7316;SDS011;3699;51.462;6.696;2023-08-06T11:03:37;1.47;;;1.40;;
7316;SDS011;3699;51.462;6.696;2023-08-06T11:06:04;1.40;;;1.30;;
7316;SDS011;3699;51.462;6.696;2023-08-06T11:08:33;1.70;;;1.60;;
7316;SDS011;3699;51.462;6.696;2023-08-06T11:11:07;3.70;;;1.83;;
7316;SDS011;3699;51.462;6.696;2023-08-06T11:13:35;1.93;;;1.70;;
7316;SDS011;3699;51.462;6.696;2023-08-06T11:16:02;1.80;;;1.70;;
7316;SDS011;3699;51.462;6.696;2023-08-06T11:18:31;2.80;;;1.80;;
7316;SDS011;3699;51.462;6.696;2023-08-06T11:20:58;3.40;;;1.77;;
7316;SDS011;3699;51.462;6.696;2023-08-06T11:23:26;1.73;;;1.63;;
7316;SDS011;3699;51.462;6.696;2023-08-06T11:25:53;2.70;;;1.90;;
7316;SDS011;3699;51.462;6.696;2023-08-06T11:28:20;1.80;;;1.70;;
7316;SDS011;3699;51.462;6.696;2023-08-06T11:30:47;1.93;;;1.70;;
7316;SDS011;3699;51.462;6.696;2023-08-06T11:33:14;1.83;;;1.73;;
7316;SDS011;3699;51.462;6.696;2023-08-06T11:35:42;2.07;;;1.87;;
7316;SDS011;3699;51.462;6.696;2023-08-06T11:38:09;1.87;;;1.77;;
7316;SDS011;3699;51.462;6.696;2023-08-06T11:40:35;4.90;;;2.33;;
7316;SDS011;3699;51.462;6.696;2023-08-06T11:43:02;3.97;;;2.10;;
7316;SDS011;3699;51.462;6.696;2023-08-06T11:45:29;1.50;;;1.50;;
7316;SDS011;3699;51.462;6.696;2023-08-06T11:47:56;1.60;;;1.50;;
7316;SDS011;3699;51.462;6.696;2023-08-06T11:50:23;1.60;;;1.50;;
7316;SDS011;3699;51.462;6.696;2023-08-06T11:52:54;1.93;;;1.40;;
7316;SDS011;3699;51.462;6.696;2023-08-06T11:55:22;2.10;;;1.40;;
7316;SDS011;3699;51.462;6.696;2023-08-06T11:57:50;1.40;;;1.20;;
7316;SDS011;3699;51.462;6.696;2023-08-06T12:00:17;2.50;;;1.30;;
7316;SDS011;3699;51.462;6.696;2023-08-06T12:02:47;1.23;;;1.20;;
7316;SDS011;3699;51.462;6.696;2023-08-06T12:05:16;1.10;;;1.10;;
7316;SDS011;3699;51.462;6.696;2023-08-06T12:07:46;1.80;;;1.20;;
7316;SDS011;3699;51.462;6.696;2023-08-06T12:10:15;1.27;;;1.27;;
7316;SDS011;3699;51.462;6.696;2023-08-06T12:12:44;1.57;;;1.27;;
7316;SDS011;3699;51.462;6.696;2023-08-06T12:15:11;1.20;;;1.20;;
7316;SDS011;3699;51.462;6.696;2023-08-06T12:17:38;3.33;;;1.67;;
7316;SDS011;3699;51.462;6.696;2023-08-06T12:20:06;1.50;;;1.40;;
7316;SDS011;3699;51.462;6.696;2023-08-06T12:22:33;1.40;;;1.30;;
7316;SDS011;3699;51.462;6.696;2023-08-06T12:25:00;1.30;;;1.30;;
7316;SDS011;3699;51.462;6.696;2023-08-06T12:27:29;2.33;;;1.50;;
7316;SDS011;3699;51.462;6.696;2023-08-06T12:29:56;1.93;;;1.83;;
7316;SDS011;3699;51.462;6.696;2023-08-06T12:32:23;1.90;;;1.80;;
7316;SDS011;3699;51.462;6.696;2023-08-06T12:34:49;3.13;;;2.87;;
7316;SDS011;3699;51.462;6.696;2023-08-06T12:37:16;2.20;;;2.00;;
7316;SDS011;3699;51.462;6.696;2023-08-06T12:39:43;2.80;;;1.90;;
7316;SDS011;3699;51.462;6.696;2023-08-06T12:42:10;2.07;;;1.90;;
7316;SDS011;3699;51.462;6.696;2023-08-06T12:44:38;2.30;;;2.20;;
7316;SDS011;3699;51.462;6.696;2023-08-06T12:47:05;2.20;;;2.10;;
7316;SDS011;3699;51.462;6.696;2023-08-06T12:49:32;2.47;;;2.20;;
7316;SDS011;3699;51.462;6.696;2023-08-06T12:51:59;2.47;;;2.27;;
7316;SDS011;3699;51.462;6.696;2023-08-06T12:54:26;2.63;;;2.43;;
7316;SDS011;3699;51.462;6.696;2023-08-06T12:56:53;2.73;;;2.30;;
7316;SDS011;3699;51.462;6.696;2023-08-06T12:59:20;2.50;;;2.30;;
7316;SDS011;3699;51.462;6.696;2023-08-06T13:01:48;3.17;;;2.60;;
7316;SDS011;3699;51.462;6.696;2023-08-06T13:04:15;3.40;;;3.10;;
7316;SDS011;3699;51.462;6.696;2023-08-06T13:06:41;4.07;;;3.03;;
7316;SDS011;3699;51.462;6.696;2023-08-06T13:09:08;3.20;;;2.90;;
7316;SDS011;3699;51.462;6.696;2023-08-06T13:11:35;3.87;;;3.10;;
7316;SDS011;3699;51.462;6.696;2023-08-06T13:14:03;3.13;;;2.90;;
7316;SDS011;3699;51.462;6.696;2023-08-06T13:16:31;6.30;;;3.60;;
7316;SDS011;3699;51.462;6.696;2023-08-06T13:18:59;4.87;;;3.40;;
7316;SDS011;3699;51.462;6.696;2023-08-06T13:21:31;5.07;;;3.63;;
7316;SDS011;3699;51.462;6.696;2023-08-06T13:24:00;3.70;;;3.20;;
7316;SDS011;3699;51.462;6.696;2023-08-06T13:26:29;5.43;;;3.50;;
7316;SDS011;3699;51.462;6.696;2023-08-06T13:28:56;5.37;;;2.77;;
7316;SDS011;3699;51.462;6.696;2023-08-06T13:31:24;4.53;;;2.90;;
7316;SDS011;3699;51.462;6.696;2023-08-06T13:33:51;4.33;;;3.60;;
7316;SDS011;3699;51.462;6.696;2023-08-06T13:36:21;3.17;;;2.90;;
7316;SDS011;3699;51.462;6.696;2023-08-06T13:38:48;3.00;;;2.63;;
7316;SDS011;3699;51.462;6.696;2023-08-06T13:41:15;3.23;;;2.47;;
7316;SDS011;3699;51.462;6.696;2023-08-06T13:43:42;3.80;;;2.40;;
7316;SDS011;3699;51.462;6.696;2023-08-06T13:46:09;4.40;;;3.13;;
7316;SDS011;3699;51.462;6.696;2023-08-06T13:48:40;2.60;;;2.40;;
7316;SDS011;3699;51.462;6.696;2023-08-06T13:51:07;2.60;;;2.40;;
7316;SDS011;3699;51.462;6.696;2023-08-06T13:53:35;3.43;;;2.90;;
7316;SDS011;3699;51.462;6.696;2023-08-06T13:56:02;2.77;;;2.30;;
7316;SDS011;3699;51.462;6.696;2023-08-06T13:58:30;2.93;;;2.40;;
7316;SDS011;3699;51.462;6.696;2023-08-06T14:00:56;4.27;;;2.70;;
7316;SDS011;3699;51.462;6.696;2023-08-06T14:03:23;2.87;;;2.37;;
7316;SDS011;3699;51.462;6.696;2023-08-06T14:05:50;2.93;;;2.43;;
7316;SDS011;3699;51.462;6.696;2023-08-06T14:08:17;3.20;;;2.50;;
7316;SDS011;3699;51.462;6.696;2023-08-06T14:10:46;3.33;;;2.30;;
7316;SDS011;3699;51.462;6.696;2023-08-06T14:13:12;3.03;;;2.73;;
7316;SDS011;3699;51.462;6.696;2023-08-06T14:15:39;2.83;;;2.23;;
7316;SDS011;3699;51.462;6.696;2023-08-06T14:18:06;2.47;;;2.10;;
7316;SDS011;3699;51.462;6.696;2023-08-06T14:20:33;2.90;;;2.57;;
7316;SDS011;3699;51.462;6.696;2023-08-06T14:23:00;3.40;;;2.50;;
7316;SDS011;3699;51.462;6.696;2023-08-06T14:25:28;2.77;;;2.30;;
7316;SDS011;3699;51.462;6.696;2023-08-06T14:27:56;3.30;;;2.27;;
7316;SDS011;3699;51.462;6.696;2023-08-06T14:30:23;4.70;;;2.00;;
7316;SDS011;3699;51.462;6.696;2023-08-06T14:32:49;4.47;;;2.60;;
7316;SDS011;3699;51.462;6.696;2023-08-06T14:35:16;3.00;;;2.47;;
7316;SDS011;3699;51.462;6.696;2023-08-06T14:37:43;2.70;;;2.40;;
7316;SDS011;3699;51.462;6.696;2023-08-06T14:40:10;2.17;;;2.00;;
7316;SDS011;3699;51.462;6.696;2023-08-06T14:42:38;2.70;;;2.23;;
7316;SDS011;3699;51.462;6.696;2023-08-06T14:45:06;2.97;;;2.10;;
7316;SDS011;3699;51.462;6.696;2023-08-06T14:47:33;2.93;;;2.10;;
7316;SDS011;3699;51.462;6.696;2023-08-06T14:50:00;3.63;;;2.40;;
7316;SDS011;3699;51.462;6.696;2023-08-06T14:52:27;2.03;;;1.90;;
7316;SDS011;3699;51.462;6.696;2023-08-06T14:54:54;3.03;;;2.23;;
7316;SDS011;3699;51.462;6.696;2023-08-06T14:57:21;2.40;;;2.20;;
7316;SDS011;3699;51.462;6.696;2023-08-06T14:59:52;3.07;;;2.27;;
7316;SDS011;3699;51.462;6.696;2023-08-06T15:02:20;2.40;;;2.20;;
7316;SDS011;3699;51.462;6.696;2023-08-06T15:04:47;2.30;;;2.10;;
7316;SDS011;3699;51.462;6.696;2023-08-06T15:07:15;3.17;;;2.60;;
7316;SDS011;3699;51.462;6.696;2023-08-06T15:09:42;2.47;;;2.17;;
7316;SDS011;3699;51.462;6.696;2023-08-06T15:12:10;2.70;;;2.00;;
7316;SDS011;3699;51.462;6.696;2023-08-06T15:14:37;2.10;;;1.90;;
7316;SDS011;3699;51.462;6.696;2023-08-06T15:17:03;3.43;;;2.10;;